首页
METAR-TAF:

METAR-TAF

机场 :

丹吉尔, 弗吉尼亚州, 美国

纬度: 37-49-31N, 经度: 075-59-52W, 海拔: 2米

当前天气观测

该预报发布于19分钟前的02:53 UTC
风速17节,风向西北,有时为27节阵风
温度 -5°C
湿度 53%
气压 1034 hPa
能見度: 16.1公里
天空无云

METAR: KTGI 220253Z AUTO 32017G27KT 10SM CLR M05/M13 A3054 RMK AO1

时间: 22:12 (03:12 UTC)


TAF: 丢失

超过4000个机场的气象观测和天气预报(METAR&TAF报告)。

可查询的气象台以黄色和红色小点在地图上表示。

将鼠标移到小点上方,可查看气象台名称。

然后点击查看天气观测和预报。

如需切换地图:点击带黑十字的绿色按钮放大地图;点击带横线的绿色按钮缩小地图;或者点击绿色箭头查看邻近地区的地图。


METAR-TAF: